sensor_id;sensor_type;location;lat;lon;timestamp;temperature;humidity
74153;DHT22;62505;46.070;14.492;2023-04-05T00:02:13;21.40;57.60
74153;DHT22;62505;46.070;14.492;2023-04-05T00:04:43;21.40;57.70
74153;DHT22;62505;46.070;14.492;2023-04-05T00:07:15;21.40;57.70
74153;DHT22;62505;46.070;14.492;2023-04-05T00:09:45;21.40;57.60
74153;DHT22;62505;46.070;14.492;2023-04-05T00:12:12;21.40;57.60
74153;DHT22;62505;46.070;14.492;2023-04-05T00:14:39;21.40;57.60
74153;DHT22;62505;46.070;14.492;2023-04-05T00:17:06;21.40;57.70
74153;DHT22;62505;46.070;14.492;2023-04-05T00:19:33;21.40;57.70
74153;DHT22;62505;46.070;14.492;2023-04-05T00:22:03;21.40;57.60
74153;DHT22;62505;46.070;14.492;2023-04-05T00:24:30;21.40;57.70
74153;DHT22;62505;46.070;14.492;2023-04-05T00:26:59;21.40;57.70
74153;DHT22;62505;46.070;14.492;2023-04-05T00:29:26;21.40;57.70
74153;DHT22;62505;46.070;14.492;2023-04-05T00:31:54;21.40;57.70
74153;DHT22;62505;46.070;14.492;2023-04-05T00:34:21;21.40;57.70
74153;DHT22;62505;46.070;14.492;2023-04-05T00:36:48;21.40;57.70
74153;DHT22;62505;46.070;14.492;2023-04-05T00:39:15;21.40;57.60
74153;DHT22;62505;46.070;14.492;2023-04-05T00:41:42;21.40;57.60
74153;DHT22;62505;46.070;14.492;2023-04-05T00:44:11;21.40;57.60
74153;DHT22;62505;46.070;14.492;2023-04-05T00:46:38;21.40;57.60
74153;DHT22;62505;46.070;14.492;2023-04-05T00:49:05;21.40;57.60
74153;DHT22;62505;46.070;14.492;2023-04-05T00:51:33;21.40;57.60
74153;DHT22;62505;46.070;14.492;2023-04-05T00:54:00;21.40;57.60
74153;DHT22;62505;46.070;14.492;2023-04-05T00:56:28;21.40;57.70
74153;DHT22;62505;46.070;14.492;2023-04-05T00:58:56;21.40;57.70
74153;DHT22;62505;46.070;14.492;2023-04-05T01:01:25;21.40;57.70
74153;DHT22;62505;46.070;14.492;2023-04-05T01:03:56;21.40;57.60
74153;DHT22;62505;46.070;14.492;2023-04-05T01:06:42;21.40;57.70
74153;DHT22;62505;46.070;14.492;2023-04-05T01:09:17;21.40;57.70
74153;DHT22;62505;46.070;14.492;2023-04-05T01:11:48;21.40;57.70
74153;DHT22;62505;46.070;14.492;2023-04-05T01:14:17;21.40;57.60
74153;DHT22;62505;46.070;14.492;2023-04-05T01:16:46;21.40;57.70
74153;DHT22;62505;46.070;14.492;2023-04-05T01:19:14;21.40;57.70
74153;DHT22;62505;46.070;14.492;2023-04-05T01:22:18;21.30;57.60
74153;DHT22;62505;46.070;14.492;2023-04-05T01:25:11;21.40;57.60
74153;DHT22;62505;46.070;14.492;2023-04-05T01:27:58;21.30;57.60
74153;DHT22;62505;46.070;14.492;2023-04-05T01:30:35;21.40;57.60
74153;DHT22;62505;46.070;14.492;2023-04-05T01:33:13;21.30;57.70
74153;DHT22;62505;46.070;14.492;2023-04-05T01:35:47;21.30;57.60
74153;DHT22;62505;46.070;14.492;2023-04-05T01:38:18;21.30;57.70
74153;DHT22;62505;46.070;14.492;2023-04-05T01:40:46;21.30;57.60
74153;DHT22;62505;46.070;14.492;2023-04-05T01:43:14;21.30;57.60
74153;DHT22;62505;46.070;14.492;2023-04-05T01:45:43;21.30;57.60
74153;DHT22;62505;46.070;14.492;2023-04-05T01:48:11;21.30;57.60
74153;DHT22;62505;46.070;14.492;2023-04-05T01:50:38;21.30;57.70
74153;DHT22;62505;46.070;14.492;2023-04-05T01:53:06;21.30;57.60
74153;DHT22;62505;46.070;14.492;2023-04-05T01:55:33;21.30;57.70
74153;DHT22;62505;46.070;14.492;2023-04-05T01:58:00;21.30;57.60
74153;DHT22;62505;46.070;14.492;2023-04-05T02:00:27;21.30;57.60
74153;DHT22;62505;46.070;14.492;2023-04-05T02:02:55;21.30;57.60
74153;DHT22;62505;46.070;14.492;2023-04-05T02:05:22;21.30;57.60
74153;DHT22;62505;46.070;14.492;2023-04-05T02:07:49;21.30;57.60
74153;DHT22;62505;46.070;14.492;2023-04-05T02:10:17;21.30;57.60
74153;DHT22;62505;46.070;14.492;2023-04-05T02:12:44;21.30;57.60
74153;DHT22;62505;46.070;14.492;2023-04-05T02:15:11;21.30;57.60
74153;DHT22;62505;46.070;14.492;2023-04-05T02:17:38;21.30;57.60
74153;DHT22;62505;46.070;14.492;2023-04-05T02:20:12;21.30;57.60
74153;DHT22;62505;46.070;14.492;2023-04-05T02:22:40;21.30;57.60
74153;DHT22;62505;46.070;14.492;2023-04-05T02:25:10;21.30;57.60
74153;DHT22;62505;46.070;14.492;2023-04-05T02:27:38;21.30;57.60
74153;DHT22;62505;46.070;14.492;2023-04-05T02:30:06;21.30;57.60
74153;DHT22;62505;46.070;14.492;2023-04-05T02:32:33;21.30;57.60
74153;DHT22;62505;46.070;14.492;2023-04-05T02:35:01;21.30;58.20
74153;DHT22;62505;46.070;14.492;2023-04-05T02:37:30;21.30;57.70
74153;DHT22;62505;46.070;14.492;2023-04-05T02:39:57;21.30;57.60
74153;DHT22;62505;46.070;14.492;2023-04-05T02:42:23;21.30;57.60
74153;DHT22;62505;46.070;14.492;2023-04-05T02:44:51;21.30;57.60
74153;DHT22;62505;46.070;14.492;2023-04-05T02:47:18;21.30;57.60
74153;DHT22;62505;46.070;14.492;2023-04-05T02:49:46;21.30;57.60
74153;DHT22;62505;46.070;14.492;2023-04-05T02:52:14;21.30;57.60
74153;DHT22;62505;46.070;14.492;2023-04-05T02:54:42;21.30;58.20
74153;DHT22;62505;46.070;14.492;2023-04-05T02:57:11;21.30;57.60
74153;DHT22;62505;46.070;14.492;2023-04-05T02:59:38;21.30;57.60
74153;DHT22;62505;46.070;14.492;2023-04-05T03:02:05;21.30;57.60
74153;DHT22;62505;46.070;14.492;2023-04-05T03:04:32;21.30;57.60
74153;DHT22;62505;46.070;14.492;2023-04-05T03:07:00;21.30;57.60
74153;DHT22;62505;46.070;14.492;2023-04-05T03:09:28;21.30;57.60
74153;DHT22;62505;46.070;14.492;2023-04-05T03:11:59;21.30;57.60
74153;DHT22;62505;46.070;14.492;2023-04-05T03:14:28;21.30;57.60
74153;DHT22;62505;46.070;14.492;2023-04-05T03:16:55;21.20;57.60
74153;DHT22;62505;46.070;14.492;2023-04-05T03:19:22;21.30;57.60
74153;DHT22;62505;46.070;14.492;2023-04-05T03:21:50;21.30;57.70
74153;DHT22;62505;46.070;14.492;2023-04-05T03:24:17;21.20;57.60
74153;DHT22;62505;46.070;14.492;2023-04-05T03:26:46;21.30;57.70
74153;DHT22;62505;46.070;14.492;2023-04-05T03:29:15;21.30;57.60
74153;DHT22;62505;46.070;14.492;2023-04-05T03:31:42;21.20;57.60
74153;DHT22;62505;46.070;14.492;2023-04-05T03:34:09;21.20;57.60
74153;DHT22;62505;46.070;14.492;2023-04-05T03:36:36;21.20;57.60
74153;DHT22;62505;46.070;14.492;2023-04-05T03:39:08;21.20;57.60
74153;DHT22;62505;46.070;14.492;2023-04-05T03:41:35;21.20;57.60
74153;DHT22;62505;46.070;14.492;2023-04-05T03:44:02;21.20;57.50
74153;DHT22;62505;46.070;14.492;2023-04-05T03:46:31;21.20;57.60
74153;DHT22;62505;46.070;14.492;2023-04-05T03:48:58;21.20;57.60
74153;DHT22;62505;46.070;14.492;2023-04-05T03:51:26;21.20;57.60
74153;DHT22;62505;46.070;14.492;2023-04-05T03:53:53;21.20;57.60
74153;DHT22;62505;46.070;14.492;2023-04-05T03:56:20;21.20;57.60
74153;DHT22;62505;46.070;14.492;2023-04-05T03:58:47;21.20;57.50
74153;DHT22;62505;46.070;14.492;2023-04-05T04:01:14;21.20;57.60
74153;DHT22;62505;46.070;14.492;2023-04-05T04:03:43;21.20;57.50
74153;DHT22;62505;46.070;14.492;2023-04-05T04:06:11;21.20;57.60
74153;DHT22;62505;46.070;14.492;2023-04-05T04:08:38;21.20;57.60
74153;DHT22;62505;46.070;14.492;2023-04-05T04:11:05;21.20;57.70
74153;DHT22;62505;46.070;14.492;2023-04-05T04:13:32;21.20;57.60
74153;DHT22;62505;46.070;14.492;2023-04-05T04:15:59;21.20;57.60
74153;DHT22;62505;46.070;14.492;2023-04-05T04:18:26;21.20;57.60
74153;DHT22;62505;46.070;14.492;2023-04-05T04:20:55;21.20;57.60
74153;DHT22;62505;46.070;14.492;2023-04-05T04:23:23;21.20;57.60
74153;DHT22;62505;46.070;14.492;2023-04-05T04:25:51;21.20;57.60
74153;DHT22;62505;46.070;14.492;2023-04-05T04:28:19;21.20;57.60
74153;DHT22;62505;46.070;14.492;2023-04-05T04:30:49;21.20;57.60
74153;DHT22;62505;46.070;14.492;2023-04-05T04:33:16;21.20;57.60
74153;DHT22;62505;46.070;14.492;2023-04-05T04:35:44;21.20;57.70
74153;DHT22;62505;46.070;14.492;2023-04-05T04:38:13;21.20;57.70
74153;DHT22;62505;46.070;14.492;2023-04-05T04:40:43;21.20;57.60
74153;DHT22;62505;46.070;14.492;2023-04-05T04:43:13;21.20;57.60
74153;DHT22;62505;46.070;14.492;2023-04-05T04:45:42;21.20;57.70
74153;DHT22;62505;46.070;14.492;2023-04-05T04:48:13;21.20;57.60
74153;DHT22;62505;46.070;14.492;2023-04-05T04:50:41;21.20;57.70
74153;DHT22;62505;46.070;14.492;2023-04-05T04:53:09;21.20;58.20
74153;DHT22;62505;46.070;14.492;2023-04-05T04:55:38;21.20;57.60
74153;DHT22;62505;46.070;14.492;2023-04-05T04:58:07;21.20;57.70
74153;DHT22;62505;46.070;14.492;2023-04-05T05:00:37;21.20;57.60
74153;DHT22;62505;46.070;14.492;2023-04-05T05:03:07;21.20;57.70
74153;DHT22;62505;46.070;14.492;2023-04-05T05:05:40;21.20;57.60
74153;DHT22;62505;46.070;14.492;2023-04-05T05:08:07;21.20;57.70
74153;DHT22;62505;46.070;14.492;2023-04-05T05:10:34;21.20;57.70
74153;DHT22;62505;46.070;14.492;2023-04-05T05:13:02;21.20;57.70
74153;DHT22;62505;46.070;14.492;2023-04-05T05:15:30;21.20;57.70
74153;DHT22;62505;46.070;14.492;2023-04-05T05:17:57;21.20;57.60
74153;DHT22;62505;46.070;14.492;2023-04-05T05:20:24;21.20;57.60
74153;DHT22;62505;46.070;14.492;2023-04-05T05:22:53;21.20;57.60
74153;DHT22;62505;46.070;14.492;2023-04-05T05:25:20;21.20;57.70
74153;DHT22;62505;46.070;14.492;2023-04-05T05:27:48;21.20;57.60
74153;DHT22;62505;46.070;14.492;2023-04-05T05:30:17;21.20;57.70
74153;DHT22;62505;46.070;14.492;2023-04-05T05:32:45;21.20;57.80
74153;DHT22;62505;46.070;14.492;2023-04-05T05:35:12;21.20;57.80
74153;DHT22;62505;46.070;14.492;2023-04-05T05:37:39;21.20;57.80
74153;DHT22;62505;46.070;14.492;2023-04-05T05:40:07;21.20;57.80
74153;DHT22;62505;46.070;14.492;2023-04-05T05:42:37;21.20;58.00
74153;DHT22;62505;46.070;14.492;2023-04-05T05:45:05;21.20;58.00
74153;DHT22;62505;46.070;14.492;2023-04-05T05:47:34;21.20;58.20
74153;DHT22;62505;46.070;14.492;2023-04-05T05:50:01;21.20;58.50
74153;DHT22;62505;46.070;14.492;2023-04-05T05:52:28;21.20;58.50
74153;DHT22;62505;46.070;14.492;2023-04-05T05:54:55;21.20;59.20
74153;DHT22;62505;46.070;14.492;2023-04-05T05:57:22;21.20;58.40
74153;DHT22;62505;46.070;14.492;2023-04-05T05:59:49;21.20;58.30
74153;DHT22;62505;46.070;14.492;2023-04-05T06:02:16;21.20;58.30
74153;DHT22;62505;46.070;14.492;2023-04-05T06:04:44;21.20;58.30
74153;DHT22;62505;46.070;14.492;2023-04-05T06:07:12;21.20;58.30
74153;DHT22;62505;46.070;14.492;2023-04-05T06:09:39;21.30;58.40
74153;DHT22;62505;46.070;14.492;2023-04-05T06:12:06;21.30;58.40
74153;DHT22;62505;46.070;14.492;2023-04-05T06:14:33;21.30;58.60
74153;DHT22;62505;46.070;14.492;2023-04-05T06:17:00;21.30;58.60
74153;DHT22;62505;46.070;14.492;2023-04-05T06:19:27;21.30;62.60
74153;DHT22;62505;46.070;14.492;2023-04-05T06:21:55;21.40;60.20
74153;DHT22;62505;46.070;14.492;2023-04-05T06:24:25;21.40;61.80
74153;DHT22;62505;46.070;14.492;2023-04-05T06:26:56;21.40;59.70
74153;DHT22;62505;46.070;14.492;2023-04-05T06:29:23;21.40;60.50
74153;DHT22;62505;46.070;14.492;2023-04-05T06:31:50;21.40;59.40
74153;DHT22;62505;46.070;14.492;2023-04-05T06:34:17;21.40;59.40
74153;DHT22;62505;46.070;14.492;2023-04-05T06:36:44;21.40;60.40
74153;DHT22;62505;46.070;14.492;2023-04-05T06:39:13;21.40;60.30
74153;DHT22;62505;46.070;14.492;2023-04-05T06:41:40;21.40;60.00
74153;DHT22;62505;46.070;14.492;2023-04-05T06:44:07;21.40;59.90
74153;DHT22;62505;46.070;14.492;2023-04-05T06:46:34;21.40;60.00
74153;DHT22;62505;46.070;14.492;2023-04-05T06:49:01;21.30;59.80
74153;DHT22;62505;46.070;14.492;2023-04-05T06:51:31;21.30;59.80
74153;DHT22;62505;46.070;14.492;2023-04-05T06:53:58;21.30;59.70
74153;DHT22;62505;46.070;14.492;2023-04-05T06:56:27;21.30;59.50
74153;DHT22;62505;46.070;14.492;2023-04-05T06:58:54;21.30;59.70
74153;DHT22;62505;46.070;14.492;2023-04-05T07:01:22;21.30;59.60
74153;DHT22;62505;46.070;14.492;2023-04-05T07:03:51;21.30;59.60
74153;DHT22;62505;46.070;14.492;2023-04-05T07:06:18;21.30;59.50
74153;DHT22;62505;46.070;14.492;2023-04-05T07:08:46;21.30;59.40
74153;DHT22;62505;46.070;14.492;2023-04-05T07:11:13;21.30;59.40
74153;DHT22;62505;46.070;14.492;2023-04-05T07:13:41;21.30;59.40
74153;DHT22;62505;46.070;14.492;2023-04-05T07:16:08;21.30;59.30
74153;DHT22;62505;46.070;14.492;2023-04-05T07:18:35;21.30;59.30
74153;DHT22;62505;46.070;14.492;2023-04-05T07:21:02;21.30;59.20
74153;DHT22;62505;46.070;14.492;2023-04-05T07:23:29;21.30;59.20
74153;DHT22;62505;46.070;14.492;2023-04-05T07:25:59;21.30;59.20
74153;DHT22;62505;46.070;14.492;2023-04-05T07:28:29;21.30;59.10
74153;DHT22;62505;46.070;14.492;2023-04-05T07:30:57;21.30;59.10
74153;DHT22;62505;46.070;14.492;2023-04-05T07:33:24;21.30;59.10
74153;DHT22;62505;46.070;14.492;2023-04-05T07:35:51;21.30;59.10
74153;DHT22;62505;46.070;14.492;2023-04-05T07:38:19;21.30;59.10
74153;DHT22;62505;46.070;14.492;2023-04-05T07:40:47;21.30;59.10
74153;DHT22;62505;46.070;14.492;2023-04-05T07:43:14;21.30;59.00
74153;DHT22;62505;46.070;14.492;2023-04-05T07:45:41;21.30;59.00
74153;DHT22;62505;46.070;14.492;2023-04-05T07:48:09;21.30;59.00
74153;DHT22;62505;46.070;14.492;2023-04-05T07:50:36;21.30;59.00
74153;DHT22;62505;46.070;14.492;2023-04-05T07:53:05;21.30;59.00
74153;DHT22;62505;46.070;14.492;2023-04-05T07:55:32;21.30;58.90
74153;DHT22;62505;46.070;14.492;2023-04-05T07:58:00;21.30;58.90
74153;DHT22;62505;46.070;14.492;2023-04-05T08:00:27;21.30;58.90
74153;DHT22;62505;46.070;14.492;2023-04-05T08:02:55;21.30;58.80
74153;DHT22;62505;46.070;14.492;2023-04-05T08:05:23;21.30;58.80
74153;DHT22;62505;46.070;14.492;2023-04-05T08:07:50;21.20;58.80
74153;DHT22;62505;46.070;14.492;2023-04-05T08:10:17;21.30;58.80
74153;DHT22;62505;46.070;14.492;2023-04-05T08:12:44;21.30;58.80
74153;DHT22;62505;46.070;14.492;2023-04-05T08:15:11;21.30;58.80
74153;DHT22;62505;46.070;14.492;2023-04-05T08:17:38;21.30;58.80
74153;DHT22;62505;46.070;14.492;2023-04-05T08:20:06;21.30;58.80
74153;DHT22;62505;46.070;14.492;2023-04-05T08:22:34;21.30;58.80
74153;DHT22;62505;46.070;14.492;2023-04-05T08:25:01;21.30;58.70
74153;DHT22;62505;46.070;14.492;2023-04-05T08:27:28;21.20;58.60
74153;DHT22;62505;46.070;14.492;2023-04-05T08:29:55;21.20;58.60
74153;DHT22;62505;46.070;14.492;2023-04-05T08:32:22;21.30;58.70
74153;DHT22;62505;46.070;14.492;2023-04-05T08:34:49;21.20;58.60
74153;DHT22;62505;46.070;14.492;2023-04-05T08:37:16;21.30;58.70
74153;DHT22;62505;46.070;14.492;2023-04-05T08:39:44;21.30;58.60
74153;DHT22;62505;46.070;14.492;2023-04-05T08:42:15;21.20;58.60
74153;DHT22;62505;46.070;14.492;2023-04-05T08:44:44;21.30;58.60
74153;DHT22;62505;46.070;14.492;2023-04-05T08:47:12;21.20;58.50
74153;DHT22;62505;46.070;14.492;2023-04-05T08:49:44;21.20;58.50
74153;DHT22;62505;46.070;14.492;2023-04-05T08:52:11;21.20;58.50
74153;DHT22;62505;46.070;14.492;2023-04-05T08:54:38;21.20;58.50
74153;DHT22;62505;46.070;14.492;2023-04-05T08:57:07;21.20;58.50
74153;DHT22;62505;46.070;14.492;2023-04-05T08:59:37;21.30;58.50
74153;DHT22;62505;46.070;14.492;2023-04-05T09:02:11;21.20;58.50
74153;DHT22;62505;46.070;14.492;2023-04-05T09:04:42;21.20;58.50
74153;DHT22;62505;46.070;14.492;2023-04-05T09:07:11;21.20;58.50
74153;DHT22;62505;46.070;14.492;2023-04-05T09:09:41;21.20;58.40
74153;DHT22;62505;46.070;14.492;2023-04-05T09:12:11;21.20;58.40
74153;DHT22;62505;46.070;14.492;2023-04-05T09:14:38;21.20;58.40
74153;DHT22;62505;46.070;14.492;2023-04-05T09:17:05;21.20;58.40
74153;DHT22;62505;46.070;14.492;2023-04-05T09:19:32;21.20;58.40
74153;DHT22;62505;46.070;14.492;2023-04-05T09:22:01;21.20;58.40
74153;DHT22;62505;46.070;14.492;2023-04-05T09:24:36;21.20;58.30
74153;DHT22;62505;46.070;14.492;2023-04-05T09:27:07;21.20;58.40
74153;DHT22;62505;46.070;14.492;2023-04-05T09:29:36;21.20;58.30
74153;DHT22;62505;46.070;14.492;2023-04-05T09:32:04;21.20;58.40
74153;DHT22;62505;46.070;14.492;2023-04-05T09:34:32;21.20;58.40
74153;DHT22;62505;46.070;14.492;2023-04-05T09:37:02;21.20;58.30
74153;DHT22;62505;46.070;14.492;2023-04-05T09:39:29;21.20;58.30
74153;DHT22;62505;46.070;14.492;2023-04-05T09:42:05;21.20;58.30
74153;DHT22;62505;46.070;14.492;2023-04-05T09:44:50;21.20;58.30
74153;DHT22;62505;46.070;14.492;2023-04-05T09:47:18;21.20;58.30
74153;DHT22;62505;46.070;14.492;2023-04-05T09:49:45;21.20;58.30
74153;DHT22;62505;46.070;14.492;2023-04-05T09:52:23;21.20;58.20
74153;DHT22;62505;46.070;14.492;2023-04-05T09:54:52;21.20;58.10
74153;DHT22;62505;46.070;14.492;2023-04-05T09:57:20;21.20;58.20
74153;DHT22;62505;46.070;14.492;2023-04-05T09:59:49;21.20;58.10
74153;DHT22;62505;46.070;14.492;2023-04-05T10:02:16;21.20;58.10
74153;DHT22;62505;46.070;14.492;2023-04-05T10:04:44;21.20;58.20
74153;DHT22;62505;46.070;14.492;2023-04-05T10:07:13;21.20;58.10
74153;DHT22;62505;46.070;14.492;2023-04-05T10:09:41;21.20;58.10
74153;DHT22;62505;46.070;14.492;2023-04-05T10:12:09;21.20;58.10
74153;DHT22;62505;46.070;14.492;2023-04-05T10:14:38;21.20;58.10
74153;DHT22;62505;46.070;14.492;2023-04-05T10:17:12;21.20;58.10
74153;DHT22;62505;46.070;14.492;2023-04-05T10:19:54;21.20;58.10
74153;DHT22;62505;46.070;14.492;2023-04-05T10:22:26;21.20;58.10
74153;DHT22;62505;46.070;14.492;2023-04-05T10:25:04;21.20;58.10
74153;DHT22;62505;46.070;14.492;2023-04-05T10:27:39;21.20;57.90
74153;DHT22;62505;46.070;14.492;2023-04-05T10:30:08;21.20;57.80
74153;DHT22;62505;46.070;14.492;2023-04-05T10:32:55;21.20;57.80
74153;DHT22;62505;46.070;14.492;2023-04-05T10:35:30;21.30;58.00
74153;DHT22;62505;46.070;14.492;2023-04-05T10:38:11;21.30;58.00
74153;DHT22;62505;46.070;14.492;2023-04-05T10:40:42;21.30;58.20
74153;DHT22;62505;46.070;14.492;2023-04-05T10:43:15;21.30;58.20
74153;DHT22;62505;46.070;14.492;2023-04-05T10:45:43;21.30;58.30
74153;DHT22;62505;46.070;14.492;2023-04-05T10:48:20;21.30;58.40
74153;DHT22;62505;46.070;14.492;2023-04-05T10:50:51;21.30;58.50
74153;DHT22;62505;46.070;14.492;2023-04-05T10:53:20;21.30;58.40
74153;DHT22;62505;46.070;14.492;2023-04-05T10:55:48;21.30;58.60
74153;DHT22;62505;46.070;14.492;2023-04-05T10:58:16;21.30;58.50
74153;DHT22;62505;46.070;14.492;2023-04-05T11:00:45;21.30;58.60
74153;DHT22;62505;46.070;14.492;2023-04-05T11:03:40;21.30;58.70
74153;DHT22;62505;46.070;14.492;2023-04-05T11:06:21;21.40;59.00
74153;DHT22;62505;46.070;14.492;2023-04-05T11:08:51;21.40;58.60
74153;DHT22;62505;46.070;14.492;2023-04-05T11:11:21;21.40;58.80
74153;DHT22;62505;46.070;14.492;2023-04-05T11:13:51;21.40;59.00
74153;DHT22;62505;46.070;14.492;2023-04-05T11:16:18;21.40;59.00
74153;DHT22;62505;46.070;14.492;2023-04-05T11:18:47;21.40;59.00
74153;DHT22;62505;46.070;14.492;2023-04-05T11:21:22;21.40;58.80
74153;DHT22;62505;46.070;14.492;2023-04-05T11:24:00;21.40;58.70
74153;DHT22;62505;46.070;14.492;2023-04-05T11:29:17;21.40;59.10
74153;DHT22;62505;46.070;14.492;2023-04-05T11:31:56;21.40;59.10
74153;DHT22;62505;46.070;14.492;2023-04-05T11:34:25;21.40;59.20
74153;DHT22;62505;46.070;14.492;2023-04-05T11:36:52;21.40;59.20
74153;DHT22;62505;46.070;14.492;2023-04-05T11:39:23;21.40;59.00
74153;DHT22;62505;46.070;14.492;2023-04-05T11:42:01;21.40;59.00
74153;DHT22;62505;46.070;14.492;2023-04-05T11:44:29;21.40;59.00
74153;DHT22;62505;46.070;14.492;2023-04-05T11:47:05;21.40;59.00
74153;DHT22;62505;46.070;14.492;2023-04-05T11:49:34;21.40;58.90
74153;DHT22;62505;46.070;14.492;2023-04-05T11:52:10;21.40;58.90
74153;DHT22;62505;46.070;14.492;2023-04-05T11:54:37;21.40;58.80
74153;DHT22;62505;46.070;14.492;2023-04-05T11:57:12;21.40;58.80
74153;DHT22;62505;46.070;14.492;2023-04-05T11:59:39;21.40;58.80
74153;DHT22;62505;46.070;14.492;2023-04-05T12:02:06;21.40;58.80
74153;DHT22;62505;46.070;14.492;2023-04-05T12:04:35;21.40;58.80
74153;DHT22;62505;46.070;14.492;2023-04-05T12:07:16;21.40;58.70
74153;DHT22;62505;46.070;14.492;2023-04-05T12:10:00;21.40;58.70
74153;DHT22;62505;46.070;14.492;2023-04-05T12:12:31;21.40;58.80
74153;DHT22;62505;46.070;14.492;2023-04-05T12:14:58;21.40;58.70
74153;DHT22;62505;46.070;14.492;2023-04-05T12:17:39;21.40;58.70
74153;DHT22;62505;46.070;14.492;2023-04-05T12:20:08;21.40;59.10
74153;DHT22;62505;46.070;14.492;2023-04-05T12:22:37;21.40;59.10
74153;DHT22;62505;46.070;14.492;2023-04-05T12:25:05;21.50;59.60
74153;DHT22;62505;46.070;14.492;2023-04-05T12:27:32;21.50;59.30
74153;DHT22;62505;46.070;14.492;2023-04-05T12:30:07;21.50;59.70
74153;DHT22;62505;46.070;14.492;2023-04-05T12:32:41;21.50;59.70
74153;DHT22;62505;46.070;14.492;2023-04-05T12:35:15;21.50;58.50
74153;DHT22;62505;46.070;14.492;2023-04-05T12:37:42;21.50;59.70
74153;DHT22;62505;46.070;14.492;2023-04-05T12:40:10;21.60;60.00
74153;DHT22;62505;46.070;14.492;2023-04-05T12:42:39;21.60;60.00
74153;DHT22;62505;46.070;14.492;2023-04-05T12:45:09;21.60;60.10
74153;DHT22;62505;46.070;14.492;2023-04-05T12:47:48;21.60;60.30
74153;DHT22;62505;46.070;14.492;2023-04-05T12:50:18;21.60;60.20
74153;DHT22;62505;46.070;14.492;2023-04-05T12:52:52;21.60;60.60
74153;DHT22;62505;46.070;14.492;2023-04-05T12:55:20;21.60;60.90
74153;DHT22;62505;46.070;14.492;2023-04-05T12:57:55;21.70;61.10
74153;DHT22;62505;46.070;14.492;2023-04-05T13:00:25;21.70;61.50
74153;DHT22;62505;46.070;14.492;2023-04-05T13:02:53;21.70;61.00
74153;DHT22;62505;46.070;14.492;2023-04-05T13:05:23;21.70;61.10
74153;DHT22;62505;46.070;14.492;2023-04-05T13:07:50;21.70;61.40
74153;DHT22;62505;46.070;14.492;2023-04-05T13:10:18;21.70;61.70
74153;DHT22;62505;46.070;14.492;2023-04-05T13:12:45;21.70;61.60
74153;DHT22;62505;46.070;14.492;2023-04-05T13:15:13;21.70;61.90
74153;DHT22;62505;46.070;14.492;2023-04-05T13:17:40;21.70;62.10
74153;DHT22;62505;46.070;14.492;2023-04-05T13:20:08;21.70;61.90
74153;DHT22;62505;46.070;14.492;2023-04-05T13:22:37;21.80;61.70
74153;DHT22;62505;46.070;14.492;2023-04-05T13:25:05;21.80;61.80
74153;DHT22;62505;46.070;14.492;2023-04-05T13:27:32;21.70;61.40
74153;DHT22;62505;46.070;14.492;2023-04-05T13:29:59;21.80;62.00
74153;DHT22;62505;46.070;14.492;2023-04-05T13:32:26;21.70;62.10
74153;DHT22;62505;46.070;14.492;2023-04-05T13:34:53;21.80;62.00
74153;DHT22;62505;46.070;14.492;2023-04-05T13:37:20;21.80;62.10
74153;DHT22;62505;46.070;14.492;2023-04-05T13:39:49;21.70;61.80
74153;DHT22;62505;46.070;14.492;2023-04-05T13:42:16;21.80;61.40
74153;DHT22;62505;46.070;14.492;2023-04-05T13:44:43;21.70;60.70
74153;DHT22;62505;46.070;14.492;2023-04-05T13:47:10;21.70;60.90
74153;DHT22;62505;46.070;14.492;2023-04-05T13:49:39;21.70;60.70
74153;DHT22;62505;46.070;14.492;2023-04-05T13:52:06;21.70;60.20
74153;DHT22;62505;46.070;14.492;2023-04-05T13:54:33;21.70;60.20
74153;DHT22;62505;46.070;14.492;2023-04-05T13:57:02;21.70;60.10
74153;DHT22;62505;46.070;14.492;2023-04-05T13:59:29;21.70;60.20
74153;DHT22;62505;46.070;14.492;2023-04-05T14:01:56;21.70;60.10
74153;DHT22;62505;46.070;14.492;2023-04-05T14:04:23;21.70;60.10
74153;DHT22;62505;46.070;14.492;2023-04-05T14:06:50;21.70;60.00
74153;DHT22;62505;46.070;14.492;2023-04-05T14:09:17;21.70;60.00
74153;DHT22;62505;46.070;14.492;2023-04-05T14:11:45;21.70;59.90
74153;DHT22;62505;46.070;14.492;2023-04-05T14:14:13;21.70;59.90
74153;DHT22;62505;46.070;14.492;2023-04-05T14:16:40;21.70;59.80
74153;DHT22;62505;46.070;14.492;2023-04-05T14:19:07;21.70;59.80
74153;DHT22;62505;46.070;14.492;2023-04-05T14:21:34;21.70;59.80
74153;DHT22;62505;46.070;14.492;2023-04-05T14:24:01;21.70;59.90
74153;DHT22;62505;46.070;14.492;2023-04-05T14:26:28;21.70;59.70
74153;DHT22;62505;46.070;14.492;2023-04-05T14:28:55;21.70;59.80
74153;DHT22;62505;46.070;14.492;2023-04-05T14:31:24;21.70;59.80
74153;DHT22;62505;46.070;14.492;2023-04-05T14:33:51;21.70;59.70
74153;DHT22;62505;46.070;14.492;2023-04-05T14:36:18;21.70;59.70
74153;DHT22;62505;46.070;14.492;2023-04-05T14:38:45;21.70;59.70
74153;DHT22;62505;46.070;14.492;2023-04-05T14:41:12;21.70;59.80
74153;DHT22;62505;46.070;14.492;2023-04-05T14:43:40;21.70;59.90
74153;DHT22;62505;46.070;14.492;2023-04-05T14:46:07;21.70;59.90
74153;DHT22;62505;46.070;14.492;2023-04-05T14:48:36;21.70;59.80
74153;DHT22;62505;46.070;14.492;2023-04-05T14:51:03;21.70;59.90
74153;DHT22;62505;46.070;14.492;2023-04-05T14:53:31;21.70;59.90
74153;DHT22;62505;46.070;14.492;2023-04-05T14:55:58;21.70;59.80
74153;DHT22;62505;46.070;14.492;2023-04-05T14:58:25;21.70;59.70
74153;DHT22;62505;46.070;14.492;2023-04-05T15:00:54;21.70;59.70
74153;DHT22;62505;46.070;14.492;2023-04-05T15:03:22;21.70;59.70
74153;DHT22;62505;46.070;14.492;2023-04-05T15:05:51;21.70;59.70
74153;DHT22;62505;46.070;14.492;2023-04-05T15:08:18;21.70;59.70
74153;DHT22;62505;46.070;14.492;2023-04-05T15:10:45;21.70;59.70
74153;DHT22;62505;46.070;14.492;2023-04-05T15:13:13;21.80;59.60
74153;DHT22;62505;46.070;14.492;2023-04-05T15:15:40;21.80;59.70
74153;DHT22;62505;46.070;14.492;2023-04-05T15:18:07;21.70;59.50
74153;DHT22;62505;46.070;14.492;2023-04-05T15:20:34;21.80;59.60
74153;DHT22;62505;46.070;14.492;2023-04-05T15:23:03;21.80;59.60
74153;DHT22;62505;46.070;14.492;2023-04-05T15:25:30;21.80;59.60
74153;DHT22;62505;46.070;14.492;2023-04-05T15:27:57;21.80;59.60
74153;DHT22;62505;46.070;14.492;2023-04-05T15:30:25;21.80;59.50